Latest Weather Observations for Hamilton Island

IDQ60801

Issued at 8:03 pm EST Tuesday 27 September 2016 (issued every 30 minutes, with the page automatically refreshed every 10 minutes)

About weather observations | Map of weather stations | Latest weather observations for QLD | Other Formats
Station Details ID: 033106 Name: HAMILTON ISLAND AIRPORT Lat: -20.37 Lon: 148.95 Height: 58.66 m
Data from the previous 72 hours. | See also: Recent months at Hamilton Island
Date/Time
EST
Temp
°C
App
Temp
°C
Dew
Point
°C
Rel
Hum
%
Delta-T
°C
Wind Press
QNH
hPa
Press
MSL
hPa
Rain since
9am
mm
Dir  Spd
km/h
Gust
km/h
Spd
kts
Gust
kts
27/08:00pm 23.5 23.9 19.8 80 2.4 ESE 17 19 9 10 1014.3 - 0.0
27/07:30pm 23.5 23.5 20.2 82 2.1 SE 20 24 11 13 1014.5 - 0.0
27/07:00pm 23.4 23.3 20.0 81 2.2 ESE 20 24 11 13 1014.0 - 0.0
27/06:30pm 23.6 23.4 20.5 83 2.0 ESE 22 24 12 13 1013.7 - 0.0
27/06:00pm 23.8 23.0 20.1 80 2.4 ESE 24 28 13 15 1013.2 1012.9 0.0
27/05:30pm 24.0 23.6 18.9 73 3.2 ESE 19 20 10 11 1012.8 - 0.0
27/05:00pm 24.3 23.8 19.1 73 3.3 E 20 24 11 13 1012.4 - 0.0
27/04:30pm 24.5 22.7 18.7 70 3.7 E 26 30 14 16 1011.9 - 0.0
27/04:00pm 24.7 23.8 19.8 74 3.2 E 24 30 13 16 1011.9 - 0.0
27/03:30pm 25.3 24.5 20.1 73 3.4 E 24 28 13 15 1011.6 - 0.0
27/03:00pm 25.7 24.7 19.6 69 3.9 E 24 28 13 15 1011.8 1011.5 0.0
27/02:30pm 26.6 24.9 16.2 52 6.4 E 20 24 11 13 1011.8 - 0.0
27/02:00pm 26.3 26.2 19.9 68 4.2 E 20 22 11 12 1012.1 - 0.0
27/01:30pm 26.1 25.8 20.4 71 3.7 ESE 22 24 12 13 1012.5 - 0.0
27/01:00pm 26.5 27.0 20.8 71 3.8 E 19 20 10 11 1012.7 - 0.0
27/12:30pm 26.6 27.5 20.9 71 3.8 E 17 20 9 11 1013.4 - 0.0
27/12:00pm 26.9 28.1 20.7 69 4.1 ESE 15 19 8 10 1013.9 1013.6 0.0
27/11:30am 26.7 27.6 20.1 67 4.3 ESE 15 19 8 10 1014.2 - 0.0
27/11:00am 27.0 28.3 19.4 63 4.9 SSE 11 13 6 7 1014.7 - 0.0
27/10:30am 26.9 28.7 18.7 60 5.3 W 7 11 4 6 1015.2 - 0.0
27/10:00am 26.4 27.2 19.0 63 4.8 NNW 13 17 7 9 1015.1 - 0.0
27/09:30am 25.6 26.4 19.9 70 3.7 NNW 15 20 8 11 1015.4 - 0.0
27/09:00am 24.7 25.1 19.8 74 3.2 NNW 17 20 9 11 1015.8 1015.6 0.0
27/08:30am 23.9 24.6 19.6 77 2.8 NNW 15 20 8 11 1015.9 - 0.0
27/08:00am 23.4 25.4 20.7 85 1.8 NW 11 15 6 8 1015.7 - 0.0
27/07:30am 22.7 24.0 20.2 86 1.6 NW 13 17 7 9 1015.4 - 0.0
27/07:00am 22.1 23.7 20.0 88 1.4 WNW 11 13 6 7 1015.2 - 0.0
27/06:30am 21.5 23.2 20.1 92 0.9 WNW 11 11 6 6 1014.7 - 0.0
27/06:00am 21.2 23.1 19.8 92 0.9 NNW 9 11 5 6 1014.2 1013.9 0.0
27/05:30am 21.0 23.1 19.3 90 1.1 NNW 7 9 4 5 1014.0 - 0.0
27/05:00am 21.2 24.8 19.7 91 1.0 CALM 0 0 0 0 1014.0 - 0.0
27/04:30am 21.2 22.7 19.7 91 1.0 WSW 11 13 6 7 1013.6 - 0.0
27/04:00am 21.3 22.7 19.6 90 1.1 WSW 11 15 6 8 1013.3 - 0.0
27/03:30am 21.3 23.3 19.9 92 0.9 W 9 13 5 7 1013.2 - 0.0
27/03:00am 21.4 24.0 20.0 92 0.9 NW 6 7 3 4 1013.1 1012.8 0.0
27/02:30am 21.3 23.6 19.9 92 0.9 NNW 7 9 4 5 1013.1 - 0.0
27/02:00am 21.4 23.4 20.0 92 0.9 NW 9 11 5 6 1013.4 - 0.0
27/01:30am 21.4 23.6 19.7 90 1.1 NW 7 9 4 5 1013.6 - 0.0
27/01:00am 21.7 24.1 20.0 90 1.1 WNW 7 7 4 4 1013.9 - 0.0
27/12:30am 21.9 24.5 20.0 89 1.2 NW 6 9 3 5 1014.2 - 0.0
27/12:00am 22.2 24.6 19.7 86 1.6 NNW 6 7 3 4 1014.5 1014.3 0.0
 
Date/Time
EST
Temp
°C
App
Temp
°C
Dew
Point
°C
Rel
Hum
%
Delta-T
°C
Wind Press
QNH
hPa
Press
MSL
hPa
Rain since
9am
mm
Dir  Spd
km/h
Gust
km/h
Spd
kts
Gust
kts
26/11:30pm 22.5 24.7 19.1 81 2.2 NNE 6 7 3 4 1014.8 - 0.0
26/11:00pm 22.5 24.6 19.3 82 2.0 NE 7 11 4 6 1014.8 - 0.0
26/10:30pm 22.4 23.9 18.8 80 2.3 ENE 9 11 5 6 1014.8 - 0.0
26/10:00pm 22.7 23.9 19.1 80 2.3 ENE 11 15 6 8 1014.7 - 0.0
26/09:30pm 23.0 23.9 19.2 79 2.4 E 13 17 7 9 1014.8 - 0.0
26/09:00pm 23.1 23.5 19.1 78 2.5 E 15 17 8 9 1014.6 1014.4 0.0
26/08:30pm 23.2 22.9 19.1 78 2.6 ESE 19 20 10 11 1014.6 - 0.0
26/08:00pm 23.1 22.7 19.3 79 2.4 ESE 20 24 11 13 1014.2 - 0.0
26/07:30pm 23.3 22.7 19.7 80 2.3 E 22 26 12 14 1013.7 - 0.0
26/07:00pm 23.3 22.0 19.0 77 2.7 E 24 28 13 15 1013.3 - 0.0
26/06:30pm 23.3 22.2 19.5 79 2.4 ESE 24 28 13 15 1012.9 - 0.0
26/06:00pm 23.3 22.0 19.0 77 2.7 ESE 24 30 13 16 1012.3 1012.0 0.0
26/05:30pm 23.5 21.3 18.8 75 3.0 E 28 32 15 17 1011.8 - 0.0
26/05:00pm 23.7 21.3 19.2 76 2.9 E 30 33 16 18 1011.5 - 0.0
26/04:30pm 23.8 21.3 19.7 78 2.6 E 32 35 17 19 1011.2 - 0.0
26/04:00pm 23.9 21.5 19.0 74 3.1 E 30 35 16 19 1011.0 - 0.0
26/03:30pm 24.2 21.4 19.1 73 3.3 E 32 35 17 19 1011.0 - 0.0
26/03:00pm 24.6 21.5 18.8 70 3.7 ESE 33 39 18 21 1011.1 1010.8 0.0
26/02:30pm 24.7 20.7 17.7 65 4.4 E 35 41 19 22 1011.2 - 0.0
26/02:00pm 24.8 21.0 17.3 63 4.7 E 33 39 18 21 1011.4 - 0.0
26/01:30pm 25.4 22.3 16.5 58 5.5 E 28 33 15 18 1011.8 - 0.0
26/01:00pm 26.3 24.3 16.5 54 6.1 E 22 26 12 14 1012.2 - 0.0
26/12:30pm 27.2 25.2 16.5 52 6.6 SE 22 26 12 14 1012.6 - 0.0
26/12:00pm 26.4 24.5 15.8 52 6.5 SSE 20 22 11 12 1013.0 1012.7 0.0
26/11:30am 26.4 24.2 16.0 52 6.4 SSE 22 26 12 14 1013.3 - 0.0
26/11:00am 27.5 25.8 17.1 53 6.5 SE 22 26 12 14 1013.7 - 0.0
26/10:30am 26.4 25.4 18.0 60 5.3 SSE 20 22 11 12 1014.0 - 0.0
26/10:00am 26.3 24.5 17.9 60 5.3 SSE 24 26 13 14 1014.1 - 0.0
26/09:30am 25.9 24.7 17.5 59 5.3 SSE 20 24 11 13 1014.3 - 0.0
26/09:00am 26.7 28.3 19.1 63 4.9 S 9 13 5 7 1014.1 1013.8 0.0
26/08:30am 26.0 27.5 18.9 65 4.6 SW 9 13 5 7 1014.1 - 0.0
26/08:00am 25.3 28.1 21.6 80 2.5 WNW 9 11 5 6 1014.0 - 0.0
26/07:30am 24.5 26.7 21.8 85 1.8 NW 13 17 7 9 1013.6 - 0.0
26/07:00am 24.2 25.8 22.1 88 1.4 NW 17 20 9 11 1013.1 - 0.0
26/06:30am 23.9 24.8 22.0 89 1.3 NW 20 24 11 13 1012.7 - 0.0
26/06:00am 23.9 24.2 22.2 90 1.1 NNW 24 30 13 16 1012.3 1012.0 0.0
26/05:30am 23.8 23.8 21.7 88 1.4 NNW 24 30 13 16 1011.9 - 0.0
26/05:00am 23.9 23.6 21.8 88 1.4 NNW 26 30 14 16 1011.5 - 0.0
26/04:30am 23.9 24.3 21.8 88 1.4 NNW 22 26 12 14 1011.2 - 0.0
26/04:00am 23.9 24.0 21.8 88 1.4 NNW 24 30 13 16 1011.2 - 0.0
26/03:30am 24.0 23.8 22.1 89 1.3 NNW 26 32 14 17 1010.9 - 0.0
26/03:00am 24.1 23.5 22.0 88 1.4 NNW 28 33 15 18 1010.8 1010.5 0.0
26/02:30am 24.1 23.1 22.0 88 1.4 NNW 30 35 16 19 1010.8 - 0.0
26/02:00am 24.1 22.7 22.0 88 1.4 NW 32 39 17 21 1010.7 - 0.0
26/01:30am 24.1 23.2 22.2 89 1.3 NW 30 37 16 20 1011.1 - 0.0
26/01:00am 24.2 22.9 22.1 88 1.4 NW 32 39 17 21 1011.6 - 0.0
26/12:30am 24.2 22.1 22.3 89 1.3 NW 37 44 20 24 1011.5 - 0.0
26/12:00am 24.3 22.6 22.4 89 1.3 NNW 35 41 19 22 1011.8 1011.5 0.0
 
Date/Time
EST
Temp
°C
App
Temp
°C
Dew
Point
°C
Rel
Hum
%
Delta-T
°C
Wind Press
QNH
hPa
Press
MSL
hPa
Rain since
9am
mm
Dir  Spd
km/h
Gust
km/h
Spd
kts
Gust
kts
25/11:30pm 24.3 22.1 22.2 88 1.4 NNW 37 46 20 25 1011.9 - 0.0
25/11:00pm 24.3 21.7 22.2 88 1.4 NW 39 48 21 26 1011.8 - 0.0
25/10:30pm 24.3 22.5 22.2 88 1.4 NW 35 46 19 25 1012.1 - 0.0
25/10:00pm 24.4 21.8 22.1 87 1.5 NW 39 46 21 25 1011.8 - 0.0
25/09:30pm 24.4 21.8 22.1 87 1.5 NW 39 44 21 24 1011.7 - 0.0
25/09:00pm 24.5 21.5 22.2 87 1.5 NW 41 50 22 27 1011.3 1011.0 0.0
25/08:30pm 24.5 21.2 22.2 87 1.5 NW 43 50 23 27 1011.0 - 0.0
25/08:00pm 24.5 21.0 21.8 85 1.8 NNW 43 48 23 26 1010.7 - 0.0
25/07:30pm 24.5 21.6 21.6 84 1.9 NNW 39 50 21 27 1010.4 - 0.0
25/07:00pm 24.6 20.8 21.7 84 1.9 NNW 44 52 24 28 1010.1 - 0.0
25/06:30pm 24.6 20.3 21.5 83 2.1 NNW 46 56 25 30 1009.5 - 0.0
25/06:00pm 24.7 20.9 21.6 83 2.1 NNW 44 52 24 28 1009.3 1009.0 0.0
25/05:30pm 25.1 21.2 21.4 80 2.5 NNW 44 52 24 28 1008.8 - 0.0
25/05:00pm 25.6 21.8 21.3 77 2.9 NNW 43 54 23 29 1008.6 - 0.0
25/04:30pm 26.0 22.1 21.2 75 3.2 NNW 43 54 23 29 1008.3 - 0.0
25/04:00pm 26.2 22.0 21.0 73 3.4 NNW 44 54 24 29 1008.2 - 0.0
25/03:30pm 26.6 23.2 21.4 73 3.5 NNW 41 50 22 27 1008.5 - 0.0
25/03:00pm 26.9 23.2 20.7 69 4.1 NNW 41 50 22 27 1008.4 1008.1 0.0
25/02:30pm 27.3 24.3 21.3 69 4.0 NNW 39 50 21 27 1008.9 - 0.0
25/02:00pm 27.2 24.4 21.7 72 3.7 NNW 39 50 21 27 1009.1 - 0.0
25/01:30pm 26.9 23.8 21.2 71 3.8 NNW 39 50 21 27 1009.4 - 0.0
25/01:00pm 27.2 23.9 20.8 68 4.2 NNW 39 48 21 26 1009.7 - 0.0
25/12:30pm 27.3 24.1 21.1 69 4.1 NNW 39 50 21 27 1010.0 - 0.0
25/12:00pm 27.5 25.4 20.6 66 4.6 NNW 32 39 17 21 1010.8 1010.5 0.0
25/11:30am 27.1 24.1 20.7 68 4.2 NNW 37 44 20 24 1011.0 - 0.0
25/11:00am 27.0 25.0 20.8 69 4.1 NNW 32 43 17 23 1011.6 - 0.0
25/10:30am 26.2 24.2 20.7 71 3.6 NNW 32 41 17 22 1011.9 - 0.0
25/10:00am 26.3 24.6 21.7 76 3.1 NNW 33 41 18 22 1012.0 - 0.0
25/09:30am 25.9 24.3 21.8 78 2.7 NNW 33 41 18 22 1012.1 - 0.0
25/09:00am 25.6 24.7 21.5 78 2.7 NNW 28 35 15 19 1012.3 1012.0 0.0
25/08:30am 25.2 24.2 21.9 82 2.2 NNW 30 35 16 19 1012.4 - 0.0
25/08:00am 25.1 25.8 22.2 84 1.9 NW 22 30 12 16 1012.4 - 0.0
25/07:30am 24.7 24.7 21.6 83 2.1 NNW 24 30 13 16 1012.1 - 0.0
25/07:00am 24.4 24.6 21.3 83 2.0 NNW 22 32 12 17 1011.6 - 0.0
25/06:00am 23.9 25.5 22.2 90 1.1 NW 17 24 9 13 1011.1 1010.8 0.0
25/05:30am 23.9 24.8 22.0 89 1.3 NW 20 26 11 14 1010.8 - 0.0
25/05:00am 23.9 24.7 21.8 88 1.4 NW 20 26 11 14 1010.5 - 0.0
25/04:30am 23.9 24.3 21.8 88 1.4 NW 22 30 12 16 1010.1 - 0.0
25/04:00am 23.9 24.1 21.4 86 1.7 NW 22 30 12 16 1009.8 - 0.0
25/03:30am 24.0 23.8 21.3 85 1.8 NW 24 32 13 17 1009.7 - 0.0
25/03:00am 24.1 23.3 20.8 82 2.2 NW 26 37 14 20 1009.8 1009.5 0.0
25/02:55am 24.0 23.2 20.9 83 2.0 NW 26 37 14 20 1009.8 - 0.0
25/02:30am 24.0 23.9 21.5 86 1.7 NW 24 32 13 17 1009.9 - 0.0
25/02:23am 24.1 23.6 21.4 85 1.8 NW 26 33 14 18 1009.9 - 0.0
25/02:13am 24.1 23.0 21.0 83 2.0 NW 28 39 15 21 1009.9 - 0.0
25/02:00am 24.1 23.3 21.6 86 1.7 NW 28 41 15 22 1010.0 - 0.0
25/01:30am 24.3 22.9 21.2 83 2.0 NNW 30 35 16 19 1010.2 - 0.0
25/01:00am 24.3 22.8 21.0 82 2.2 NNW 30 37 16 20 1010.4 - 0.0
25/12:52am 24.3 23.3 21.2 83 2.0 NNW 28 35 15 19 1010.6 - 0.0
25/12:38am 24.3 23.2 21.0 82 2.2 NNW 28 37 15 20 1010.7 - 0.0
25/12:30am 24.3 23.2 21.0 82 2.2 NNW 28 37 15 20 1010.7 - 0.0
25/12:00am 24.2 22.9 20.7 81 2.3 NNW 28 37 15 20 1010.5 1010.2 0.0
 
Date/Time
EST
Temp
°C
App
Temp
°C
Dew
Point
°C
Rel
Hum
%
Delta-T
°C
Wind Press
QNH
hPa
Press
MSL
hPa
Rain since
9am
mm
Dir  Spd
km/h
Gust
km/h
Spd
kts
Gust
kts
24/11:30pm 24.2 23.7 20.7 81 2.3 NNW 24 32 13 17 1010.8 - 0.0
24/11:16pm 24.3 23.0 20.6 80 2.4 NNW 28 39 15 21 1010.8 - 0.0
24/11:00pm 24.4 23.2 20.9 81 2.3 NNW 28 35 15 19 1010.8 - 0.0
24/10:38pm 24.4 23.6 20.9 81 2.3 NNW 26 35 14 19 1011.0 - 0.0
24/10:31pm 24.4 24.0 20.9 81 2.3 NNW 24 35 13 19 1011.1 - 0.0
24/10:30pm 24.4 24.4 20.9 81 2.3 NNW 22 35 12 19 1011.0 - 0.0
24/10:21pm 24.3 23.8 20.8 81 2.3 NNW 24 32 13 17 1011.1 - 0.0
24/10:18pm 24.3 23.8 20.8 81 2.3 NNW 24 32 13 17 1011.0 - 0.0
24/10:00pm 24.4 24.3 20.7 80 2.4 N 22 32 12 17 1011.2 - 0.0
24/09:30pm 24.3 24.6 20.8 81 2.3 N 20 26 11 14 1011.3 - 0.0
24/09:18pm 24.2 24.5 20.7 81 2.3 N 20 26 11 14 1011.2 - 0.0
24/09:00pm 24.2 24.6 20.7 81 2.3 N 19 30 10 16 1011.2 1010.9 0.0
24/08:56pm 24.3 24.7 20.6 80 2.4 N 19 30 10 16 1011.1 - 0.0
24/08:37pm 24.2 24.5 20.7 81 2.3 N 20 30 11 16 1011.0 - 0.0
24/08:30pm 24.3 24.6 20.8 81 2.3 N 20 30 11 16 1011.0 - 0.0

Other Formats:

Comma delimited format used in spreadsheet applications
http://www.bom.gov.au/fwo/IDQ60801/IDQ60801.94368.axf

JavaScript Object Notation format (JSON) in row-major order
http://www.bom.gov.au/fwo/IDQ60801/IDQ60801.94368.json